createdAt,value
2019-04-07T00:01:17.564Z,9.70
2019-04-07T00:03:46.317Z,9.60
2019-04-07T00:06:14.948Z,9.60
2019-04-07T00:08:43.689Z,9.60
2019-04-07T00:11:31.661Z,9.60
2019-04-07T00:14:00.327Z,9.70
2019-04-07T00:16:28.958Z,9.70
2019-04-07T00:18:57.843Z,9.60
2019-04-07T00:21:27.114Z,9.60
2019-04-07T00:23:56.148Z,9.50
2019-04-07T00:26:24.914Z,9.60
2019-04-07T00:28:53.657Z,9.60
2019-04-07T00:31:22.830Z,9.60
2019-04-07T00:33:51.655Z,9.60
2019-04-07T00:36:39.734Z,9.60
2019-04-07T00:39:09.473Z,9.60
2019-04-07T00:41:38.677Z,9.70
2019-04-07T00:44:18.038Z,9.80
2019-04-07T00:46:46.591Z,9.60
2019-04-07T00:49:15.776Z,9.70
2019-04-07T00:51:44.437Z,9.70
2019-04-07T00:54:32.676Z,9.80
2019-04-07T00:57:01.193Z,9.80
2019-04-07T00:59:29.793Z,9.70
2019-04-07T01:02:17.845Z,9.80
2019-04-07T01:04:47.196Z,9.70
2019-04-07T01:07:15.879Z,9.80
2019-04-07T01:09:45.290Z,9.90
2019-04-07T01:12:14.001Z,9.90
2019-04-07T01:14:43.325Z,9.80
2019-04-07T01:17:12.552Z,9.80
2019-04-07T01:19:41.526Z,9.70
2019-04-07T01:22:10.137Z,9.70
2019-04-07T01:24:58.514Z,9.80
2019-04-07T01:27:46.662Z,9.80
2019-04-07T01:30:16.065Z,9.70
2019-04-07T01:32:44.764Z,9.70
2019-04-07T01:35:13.597Z,9.70
2019-04-07T01:37:42.866Z,9.80
2019-04-07T01:40:11.834Z,9.90
2019-04-07T01:43:04.475Z,9.70
2019-04-07T01:45:57.130Z,9.80
2019-04-07T01:48:30.299Z,9.70
2019-04-07T01:51:04.869Z,9.60
2019-04-07T01:53:41.073Z,9.70
2019-04-07T01:56:23.463Z,9.70
2019-04-07T01:58:59.173Z,9.70
2019-04-07T02:01:38.525Z,9.70
2019-04-07T02:04:09.345Z,9.60
2019-04-07T02:06:56.417Z,9.60
2019-04-07T02:09:45.162Z,9.70
2019-04-07T02:12:18.147Z,9.60
2019-04-07T02:14:48.573Z,9.60
2019-04-07T02:17:21.962Z,9.70
2019-04-07T02:19:55.933Z,9.60
2019-04-07T02:26:08.604Z,9.70
2019-04-07T02:28:41.788Z,9.60
2019-04-07T02:31:34.445Z,9.70
2019-04-07T02:34:27.875Z,9.60
2019-04-07T02:37:02.954Z,9.70
2019-04-07T02:39:33.091Z,9.70
2019-04-07T02:45:13.947Z,9.70
2019-04-07T02:48:01.249Z,9.70
2019-04-07T02:50:37.423Z,9.70
2019-04-07T02:53:07.772Z,9.70
2019-04-07T02:55:56.874Z,9.70
2019-04-07T02:58:27.313Z,9.70
2019-04-07T03:01:17.692Z,9.40
2019-04-07T03:04:04.809Z,9.30
2019-04-07T03:09:50.523Z,9.30
2019-04-07T03:12:56.407Z,9.30
2019-04-07T03:15:46.273Z,9.40
2019-04-07T03:18:44.597Z,9.40
2019-04-07T03:21:38.162Z,9.40
2019-04-07T03:24:28.706Z,9.50
2019-04-07T03:27:15.738Z,9.40
2019-04-07T03:29:49.439Z,9.30
2019-04-07T03:32:45.632Z,9.30
2019-04-07T03:35:34.838Z,9.30
2019-04-07T03:38:05.001Z,9.10
2019-04-07T03:40:54.985Z,9.10
2019-04-07T03:43:25.555Z,9.00
2019-04-07T03:46:05.930Z,9.00
2019-04-07T03:48:48.476Z,8.90
2019-04-07T03:54:14.195Z,8.80
2019-04-07T03:56:47.854Z,8.80
2019-04-07T03:59:18.311Z,8.70
2019-04-07T04:01:57.673Z,8.60
2019-04-07T04:04:44.417Z,8.70
2019-04-07T04:07:22.885Z,8.70
2019-04-07T04:09:55.898Z,8.50
2019-04-07T04:12:29.993Z,8.60
2019-04-07T04:15:03.566Z,8.50
2019-04-07T04:17:32.744Z,8.60
2019-04-07T04:20:01.526Z,8.70
2019-04-07T04:22:30.808Z,8.80
2019-04-07T04:25:19.175Z,8.80
2019-04-07T04:27:48.619Z,8.90
2019-04-07T04:30:19.028Z,8.90
2019-04-07T04:32:47.819Z,8.90
2019-04-07T04:35:16.997Z,8.90
2019-04-07T04:37:51.421Z,8.90
2019-04-07T04:40:17.786Z,8.80
2019-04-07T04:42:46.579Z,8.80
2019-04-07T04:45:34.583Z,8.90
2019-04-07T04:48:03.137Z,8.90
2019-04-07T04:50:51.132Z,8.70
2019-04-07T04:53:39.361Z,8.80
2019-04-07T04:56:07.995Z,8.90
2019-04-07T04:58:36.622Z,8.80
2019-04-07T05:01:06.257Z,8.90
2019-04-07T05:03:34.959Z,9.00
2019-04-07T05:06:03.923Z,9.00
2019-04-07T05:08:32.627Z,8.90
2019-04-07T05:11:01.642Z,8.90
2019-04-07T05:13:30.607Z,9.00
2019-04-07T05:15:59.478Z,9.00
2019-04-07T05:18:28.149Z,8.80
2019-04-07T05:20:57.506Z,8.90
2019-04-07T05:23:26.752Z,9.00
2019-04-07T05:25:55.715Z,9.10
2019-04-07T05:28:24.438Z,9.10
2019-04-07T05:31:12.493Z,9.10
2019-04-07T05:33:41.180Z,9.00
2019-04-07T05:36:10.427Z,9.10
2019-04-07T05:38:39.514Z,9.10
2019-04-07T05:41:08.453Z,9.00
2019-04-07T05:43:37.010Z,9.10
2019-04-07T05:46:07.355Z,9.10
2019-04-07T05:48:35.827Z,9.10
2019-04-07T05:51:04.491Z,9.30
2019-04-07T05:53:33.327Z,9.30
2019-04-07T05:56:02.226Z,9.40
2019-04-07T05:58:30.897Z,9.60
2019-04-07T06:01:00.235Z,9.60
2019-04-07T06:03:48.310Z,9.60
2019-04-07T06:06:19.061Z,9.60
2019-04-07T06:08:48.610Z,9.70
2019-04-07T06:11:36.844Z,9.60
2019-04-07T06:14:05.748Z,9.70
2019-04-07T06:16:34.436Z,9.70
2019-04-07T06:19:07.879Z,9.80
2019-04-07T06:21:34.846Z,10.00
2019-04-07T06:24:03.584Z,10.10
2019-04-07T06:26:32.991Z,10.20
2019-04-07T06:29:01.804Z,10.30
2019-04-07T06:31:49.839Z,10.40
2019-04-07T06:34:18.518Z,10.40
2019-04-07T06:36:51.772Z,10.30
2019-04-07T06:39:19.272Z,10.30
2019-04-07T06:41:47.907Z,10.40
2019-04-07T06:44:35.793Z,10.50
2019-04-07T06:47:06.524Z,10.60
2019-04-07T06:49:37.111Z,10.70
2019-04-07T06:52:13.792Z,10.70
2019-04-07T06:54:55.987Z,10.90
2019-04-07T06:57:36.735Z,11.00
2019-04-07T07:00:22.845Z,11.10
2019-04-07T07:02:54.387Z,11.20
2019-04-07T07:05:45.450Z,11.30
2019-04-07T07:08:16.922Z,11.30
2019-04-07T07:10:53.193Z,11.50
2019-04-07T07:13:43.137Z,11.50
2019-04-07T07:16:30.153Z,11.60
2019-04-07T07:19:18.457Z,11.80
2019-04-07T07:21:49.042Z,12.10
2019-04-07T07:24:22.501Z,12.30
2019-04-07T07:27:10.113Z,12.40
2019-04-07T07:29:37.764Z,12.40
2019-04-07T07:32:06.471Z,12.40
2019-04-07T07:34:35.760Z,12.50
2019-04-07T07:37:05.158Z,12.50
2019-04-07T07:39:34.064Z,12.50
2019-04-07T07:42:24.127Z,12.40
2019-04-07T07:45:13.682Z,12.40
2019-04-07T07:47:42.645Z,12.50
2019-04-07T07:50:12.112Z,12.50
2019-04-07T07:52:40.691Z,12.60
2019-04-07T07:55:09.902Z,12.40
2019-04-07T07:57:38.594Z,12.30
2019-04-07T08:00:08.428Z,12.30
2019-04-07T08:02:37.187Z,12.20
2019-04-07T08:05:09.309Z,12.20
2019-04-07T08:07:38.031Z,12.50
2019-04-07T08:10:08.590Z,12.60
2019-04-07T08:12:37.285Z,12.60
2019-04-07T08:15:08.084Z,12.50
2019-04-07T08:17:36.765Z,12.40
2019-04-07T08:20:07.798Z,12.40
2019-04-07T08:22:42.376Z,12.50
2019-04-07T08:25:07.560Z,12.60
2019-04-07T08:27:36.161Z,12.70
2019-04-07T08:30:11.840Z,12.80
2019-04-07T08:32:42.090Z,12.70
2019-04-07T08:35:11.183Z,12.90
2019-04-07T08:37:40.507Z,12.80
2019-04-07T08:40:09.491Z,13.00
2019-04-07T08:42:39.179Z,13.00
2019-04-07T08:45:08.255Z,13.20
2019-04-07T08:47:56.389Z,13.10
2019-04-07T08:50:27.675Z,13.10
2019-04-07T08:52:55.416Z,13.10
2019-04-07T08:55:24.239Z,13.20
2019-04-07T08:57:52.997Z,13.30
2019-04-07T09:00:23.291Z,13.20
2019-04-07T09:03:14.371Z,13.00
2019-04-07T09:05:41.644Z,13.20
2019-04-07T09:08:10.309Z,13.30
2019-04-07T09:10:56.595Z,13.40
2019-04-07T09:13:25.206Z,13.40
2019-04-07T09:16:04.725Z,13.60
2019-04-07T09:18:57.443Z,13.80
2019-04-07T09:21:42.424Z,13.80
2019-04-07T09:24:32.247Z,13.90
2019-04-07T09:27:08.093Z,14.00
2019-04-07T09:29:41.352Z,14.10
2019-04-07T09:32:12.465Z,14.00
2019-04-07T09:34:56.141Z,14.10
2019-04-07T09:37:43.350Z,14.10
2019-04-07T09:40:39.330Z,14.40
2019-04-07T09:43:17.735Z,14.50
2019-04-07T09:46:16.102Z,14.50
2019-04-07T09:48:52.863Z,14.40
2019-04-07T09:51:41.389Z,14.50
2019-04-07T09:54:12.254Z,14.70
2019-04-07T09:59:37.586Z,15.00
2019-04-07T10:02:14.617Z,15.10
2019-04-07T10:04:44.987Z,15.30
2019-04-07T10:07:16.524Z,15.40
2019-04-07T10:10:14.890Z,15.60
2019-04-07T10:13:04.614Z,15.70
2019-04-07T10:15:35.265Z,15.90
2019-04-07T10:18:19.182Z,16.00
2019-04-07T10:20:50.247Z,16.30
2019-04-07T10:23:20.785Z,16.30
2019-04-07T10:26:00.579Z,16.20
2019-04-07T10:28:40.193Z,16.20
2019-04-07T10:31:25.577Z,16.20
2019-04-07T10:34:13.301Z,16.20
2019-04-07T10:37:10.130Z,16.40
2019-04-07T10:39:49.549Z,16.60
2019-04-07T10:45:03.502Z,16.90
2019-04-07T10:48:11.736Z,17.20
2019-04-07T10:50:48.087Z,17.60
2019-04-07T10:53:18.424Z,17.90
2019-04-07T10:55:52.104Z,18.00
2019-04-07T10:58:42.315Z,17.90
2019-04-07T11:01:12.712Z,17.90
2019-04-07T11:03:46.018Z,17.90
2019-04-07T11:06:32.810Z,17.90
2019-04-07T11:09:09.600Z,17.80
2019-04-07T11:11:39.942Z,17.70
2019-04-07T11:14:33.099Z,17.70
2019-04-07T11:17:06.576Z,17.80
2019-04-07T11:22:36.941Z,17.90
2019-04-07T11:25:15.035Z,18.10
2019-04-07T11:27:51.471Z,18.30
2019-04-07T11:30:34.480Z,18.40
2019-04-07T11:33:05.152Z,18.50
2019-04-07T11:35:41.403Z,18.60
2019-04-07T11:38:14.901Z,18.60
2019-04-07T11:40:50.152Z,18.50
2019-04-07T11:43:33.477Z,18.40
2019-04-07T11:46:04.548Z,18.10
2019-04-07T11:48:38.346Z,18.00
2019-04-07T11:51:09.528Z,17.90
2019-04-07T11:53:39.897Z,17.70
2019-04-07T11:56:32.380Z,17.50
2019-04-07T11:59:11.707Z,17.40
2019-04-07T12:01:58.629Z,17.50
2019-04-07T12:04:45.368Z,17.60
2019-04-07T12:07:22.032Z,17.70
2019-04-07T12:09:55.297Z,17.70
2019-04-07T12:12:28.869Z,17.50
2019-04-07T12:15:05.249Z,17.40
2019-04-07T12:17:42.602Z,17.40
2019-04-07T12:20:33.732Z,17.50
2019-04-07T12:23:02.192Z,17.70
2019-04-07T12:25:41.742Z,18.00
2019-04-07T12:28:28.264Z,18.00
2019-04-07T12:31:07.556Z,17.70
2019-04-07T12:33:39.351Z,18.00
2019-04-07T12:36:31.105Z,18.30
2019-04-07T12:39:26.856Z,18.00
2019-04-07T12:42:15.712Z,17.90
2019-04-07T12:44:46.375Z,18.00
2019-04-07T12:47:36.589Z,17.90
2019-04-07T12:50:09.299Z,17.90
2019-04-07T12:52:39.503Z,17.90
2019-04-07T12:55:17.995Z,17.60
2019-04-07T12:57:56.943Z,17.50
2019-04-07T13:00:53.095Z,17.70
2019-04-07T13:03:29.960Z,18.00
2019-04-07T13:06:12.231Z,18.10
2019-04-07T13:08:56.736Z,17.90
2019-04-07T13:11:35.382Z,17.90
2019-04-07T13:14:10.237Z,17.90
2019-04-07T13:17:00.177Z,18.20
2019-04-07T13:19:32.099Z,18.20
2019-04-07T13:22:03.324Z,18.30
2019-04-07T13:24:45.578Z,18.50
2019-04-07T13:27:18.324Z,18.50
2019-04-07T13:29:51.851Z,18.50
2019-04-07T13:32:42.831Z,18.50
2019-04-07T13:35:09.412Z,18.50
2019-04-07T13:37:41.610Z,18.50
2019-04-07T13:40:13.206Z,18.30
2019-04-07T13:43:04.147Z,18.00
2019-04-07T13:45:53.857Z,17.90
2019-04-07T13:48:36.240Z,17.90
2019-04-07T13:51:15.801Z,17.70
2019-04-07T13:53:48.782Z,17.40
2019-04-07T13:56:28.637Z,17.30
2019-04-07T13:59:08.186Z,17.30
2019-04-07T14:01:36.380Z,17.20
2019-04-07T14:04:10.516Z,17.20
2019-04-07T14:06:43.564Z,17.40
2019-04-07T14:09:32.308Z,17.60
2019-04-07T14:12:13.833Z,17.60
2019-04-07T14:14:52.781Z,17.70
2019-04-07T14:17:41.019Z,17.80
2019-04-07T14:20:27.740Z,17.60
2019-04-07T14:22:58.139Z,17.70
2019-04-07T14:25:28.790Z,17.50
2019-04-07T14:28:35.651Z,17.40
2019-04-07T14:31:06.534Z,17.20
2019-04-07T14:33:37.005Z,17.20
2019-04-07T14:36:23.978Z,17.10
2019-04-07T14:38:54.339Z,17.10
2019-04-07T14:41:28.066Z,16.90
2019-04-07T14:43:58.346Z,16.90
2019-04-07T14:46:31.434Z,16.90
2019-04-07T14:49:19.922Z,16.80
2019-04-07T14:52:09.533Z,16.90
2019-04-07T14:54:57.984Z,16.90
2019-04-07T14:57:31.012Z,17.00
2019-04-07T15:00:07.746Z,17.00
2019-04-07T15:02:36.583Z,16.90
2019-04-07T15:05:18.596Z,17.00
2019-04-07T15:10:47.331Z,17.10
2019-04-07T15:13:37.500Z,17.30
2019-04-07T15:16:06.257Z,17.60
2019-04-07T15:18:34.921Z,17.90
2019-04-07T15:21:23.856Z,18.00
2019-04-07T15:23:52.963Z,18.30
2019-04-07T15:26:22.150Z,18.50
2019-04-07T15:28:50.820Z,18.80
2019-04-07T15:31:20.504Z,18.80
2019-04-07T15:33:49.781Z,18.90
2019-04-07T15:36:19.574Z,19.00
2019-04-07T15:38:48.607Z,18.90
2019-04-07T15:41:19.095Z,18.90
2019-04-07T15:46:18.061Z,18.90
2019-04-07T15:48:47.640Z,18.70
2019-04-07T15:51:17.575Z,18.60
2019-04-07T15:53:50.344Z,18.50
2019-04-07T15:56:18.456Z,18.40
2019-04-07T15:58:49.521Z,18.30
2019-04-07T16:01:18.203Z,18.20
2019-04-07T16:03:50.536Z,18.00
2019-04-07T16:06:37.081Z,17.80
2019-04-07T16:09:12.367Z,17.70
2019-04-07T16:11:38.151Z,17.40
2019-04-07T16:14:12.214Z,17.30
2019-04-07T16:16:37.203Z,17.20
2019-04-07T16:19:06.742Z,17.10
2019-04-07T16:21:39.317Z,17.00
2019-04-07T16:24:07.287Z,16.90
2019-04-07T16:26:37.179Z,16.80
2019-04-07T16:29:08.001Z,16.80
2019-04-07T16:31:36.499Z,16.70
2019-04-07T16:34:07.559Z,16.60
2019-04-07T16:36:35.452Z,16.40
2019-04-07T16:39:09.209Z,16.30
2019-04-07T16:41:37.365Z,16.30
2019-04-07T16:44:08.511Z,16.20
2019-04-07T16:46:36.848Z,16.20
2019-04-07T16:49:07.815Z,16.10
2019-04-07T16:51:36.328Z,16.10
2019-04-07T16:54:08.073Z,16.10
2019-04-07T16:56:35.312Z,16.20
2019-04-07T16:59:23.293Z,16.10
2019-04-07T17:01:52.878Z,16.00
2019-04-07T17:04:21.597Z,15.90
2019-04-07T17:06:59.561Z,15.80
2019-04-07T17:09:24.715Z,15.90
2019-04-07T17:11:51.636Z,15.80
2019-04-07T17:14:20.240Z,15.80
2019-04-07T17:16:48.841Z,15.80
2019-04-07T17:19:18.186Z,15.80
2019-04-07T17:21:47.389Z,15.80
2019-04-07T17:24:16.034Z,15.70
2019-04-07T17:26:45.455Z,15.60
2019-04-07T17:29:17.161Z,15.60
2019-04-07T17:31:45.511Z,15.60
2019-04-07T17:34:14.718Z,15.50
2019-04-07T17:36:44.315Z,15.40
2019-04-07T17:39:17.177Z,15.30
2019-04-07T17:41:49.478Z,15.20
2019-04-07T17:44:35.039Z,15.10
2019-04-07T17:50:04.268Z,15.00
2019-04-07T17:52:51.189Z,14.90
2019-04-07T17:55:34.212Z,14.90
2019-04-07T17:58:07.217Z,14.90
2019-04-07T18:00:41.369Z,14.80
2019-04-07T18:03:14.186Z,14.70
2019-04-07T18:06:00.608Z,14.60
2019-04-07T18:08:33.735Z,14.50
2019-04-07T18:11:02.856Z,14.50
2019-04-07T18:13:51.208Z,14.40
2019-04-07T18:16:44.994Z,14.50
2019-04-07T18:22:22.126Z,14.40
2019-04-07T18:24:51.616Z,14.30
2019-04-07T18:27:38.339Z,14.20
2019-04-07T18:30:16.404Z,14.20
2019-04-07T18:32:46.809Z,14.20
2019-04-07T18:35:33.289Z,14.20
2019-04-07T18:38:21.798Z,14.20
2019-04-07T18:41:11.209Z,14.00
2019-04-07T18:43:52.221Z,13.90
2019-04-07T18:46:19.498Z,13.70
2019-04-07T18:48:53.253Z,13.70
2019-04-07T18:51:23.828Z,13.60
2019-04-07T18:54:03.833Z,13.50
2019-04-07T18:56:44.797Z,13.50
2019-04-07T18:59:21.452Z,13.50
2019-04-07T19:01:52.225Z,13.50
2019-04-07T19:04:25.995Z,13.40
2019-04-07T19:06:54.561Z,13.30
2019-04-07T19:12:22.738Z,13.30
2019-04-07T19:15:01.174Z,13.30
2019-04-07T19:17:29.728Z,13.30
2019-04-07T19:20:08.936Z,13.40
2019-04-07T19:22:50.725Z,13.50
2019-04-07T19:25:27.000Z,13.50
2019-04-07T19:28:00.041Z,13.40
2019-04-07T19:30:48.633Z,13.40
2019-04-07T19:33:33.477Z,13.40
2019-04-07T19:36:05.952Z,13.40
2019-04-07T19:38:38.749Z,13.40
2019-04-07T19:41:21.834Z,13.30
2019-04-07T19:43:58.458Z,13.20
2019-04-07T19:46:43.922Z,13.10
2019-04-07T19:49:32.733Z,13.00
2019-04-07T19:52:08.093Z,13.10
2019-04-07T19:57:35.077Z,13.10
2019-04-07T20:00:37.259Z,13.00
2019-04-07T20:03:11.427Z,13.00
2019-04-07T20:05:53.003Z,13.00
2019-04-07T20:08:32.475Z,13.00
2019-04-07T20:11:01.424Z,13.00
2019-04-07T20:13:40.500Z,13.00
2019-04-07T20:16:14.263Z,13.00
2019-04-07T20:18:47.260Z,12.90
2019-04-07T20:21:21.247Z,12.90
2019-04-07T20:24:07.041Z,12.90
2019-04-07T20:26:42.782Z,13.00
2019-04-07T20:29:19.337Z,12.90
2019-04-07T20:34:30.822Z,12.80
2019-04-07T20:37:01.818Z,12.80
2019-04-07T20:39:34.436Z,12.70
2019-04-07T20:42:06.995Z,12.70
2019-04-07T20:44:39.936Z,12.70
2019-04-07T20:47:46.599Z,12.60
2019-04-07T20:50:22.663Z,12.60
2019-04-07T20:52:54.419Z,12.60
2019-04-07T20:55:44.991Z,12.60
2019-04-07T20:58:45.621Z,12.60
2019-04-07T21:01:22.168Z,12.60
2019-04-07T21:03:57.928Z,12.60
2019-04-07T21:06:30.040Z,12.70
2019-04-07T21:09:23.399Z,12.70
2019-04-07T21:12:06.112Z,12.80
2019-04-07T21:15:21.105Z,12.70
2019-04-07T21:17:48.377Z,12.70
2019-04-07T21:23:20.740Z,12.70
2019-04-07T21:25:52.088Z,12.70
2019-04-07T21:28:37.663Z,12.80
2019-04-07T21:31:13.307Z,12.70
2019-04-07T21:33:41.505Z,12.50
2019-04-07T21:36:14.153Z,12.50
2019-04-07T21:38:55.103Z,12.40
2019-04-07T21:41:30.973Z,12.40
2019-04-07T21:44:16.421Z,12.30
2019-04-07T21:47:04.604Z,12.40
2019-04-07T21:49:40.546Z,12.30
2019-04-07T21:52:16.149Z,12.30
2019-04-07T21:54:45.564Z,12.30
2019-04-07T21:57:32.343Z,12.30
2019-04-07T22:00:18.982Z,12.20
2019-04-07T22:02:58.445Z,12.30
2019-04-07T22:05:46.921Z,12.10
2019-04-07T22:08:18.779Z,12.10
2019-04-07T22:10:47.906Z,12.20
2019-04-07T22:13:19.598Z,12.00
2019-04-07T22:15:54.790Z,12.00
2019-04-07T22:18:19.508Z,12.00
2019-04-07T22:20:52.693Z,12.10
2019-04-07T22:23:18.812Z,12.00
2019-04-07T22:25:51.957Z,12.00
2019-04-07T22:28:20.837Z,12.00
2019-04-07T22:30:51.358Z,12.00
2019-04-07T22:33:22.882Z,12.00
2019-04-07T22:35:51.231Z,12.10
2019-04-07T22:38:23.256Z,12.10
2019-04-07T22:40:50.384Z,12.10
2019-04-07T22:43:19.984Z,12.20
2019-04-07T22:45:59.126Z,12.20
2019-04-07T22:48:22.776Z,12.10
2019-04-07T22:50:49.941Z,11.90
2019-04-07T22:53:22.526Z,11.90
2019-04-07T22:55:48.806Z,11.80
2019-04-07T22:58:18.134Z,11.80
2019-04-07T23:00:47.265Z,11.60
2019-04-07T23:03:15.924Z,11.70
2019-04-07T23:05:44.627Z,11.70
2019-04-07T23:08:32.780Z,11.70
2019-04-07T23:11:02.195Z,11.60
2019-04-07T23:13:30.846Z,11.50
2019-04-07T23:16:08.709Z,11.50
2019-04-07T23:18:29.983Z,11.40
2019-04-07T23:20:58.620Z,11.40
2019-04-07T23:23:28.080Z,11.30
2019-04-07T23:25:57.723Z,11.20
2019-04-07T23:28:27.032Z,11.10
2019-04-07T23:30:55.597Z,11.10
2019-04-07T23:33:25.732Z,11.00
2019-04-07T23:36:13.739Z,10.90
2019-04-07T23:38:42.480Z,10.70
2019-04-07T23:41:11.691Z,10.70
2019-04-07T23:43:40.351Z,10.60
2019-04-07T23:46:19.582Z,10.60
2019-04-07T23:48:40.225Z,10.70
2019-04-07T23:51:28.796Z,10.60
2019-04-07T23:54:09.134Z,10.50
2019-04-07T23:56:39.749Z,10.40
2019-04-07T23:59:27.748Z,10.40
